Time,TemperatureF,DewpointF,PressureIn,WindDirection,WindDirectionDegrees,WindSpeedMPH,WindSpeedGustMPH,Humidity,HourlyPrecipIn,Conditions,Clouds,dailyrainin,SoftwareType,DateUTC
2013-03-12 00:02:00,72.0,64.0,30.00,SSE,161,3.0,12.0,75,0.00,,,0.00,,2013-03-12 04:02:00,
2013-03-12 00:13:00,72.0,64.0,30.00,SSE,161,3.0,12.0,75,0.00,,,0.00,,2013-03-12 04:13:00,
2013-03-12 00:22:00,72.0,64.0,30.00,SSE,154,2.0,7.0,76,0.00,,,0.00,,2013-03-12 04:22:00,
2013-03-12 00:32:00,72.0,64.0,30.00,East,90,2.0,14.0,75,0.00,,,0.00,,2013-03-12 04:32:00,
2013-03-12 00:43:00,72.0,64.0,30.00,East,90,2.0,14.0,75,0.00,,,0.00,,2013-03-12 04:43:00,
2013-03-12 00:52:00,72.0,64.0,29.99,East,95,2.0,10.0,75,0.00,,,0.00,,2013-03-12 04:52:00,
2013-03-12 01:02:00,72.0,64.0,29.99,SE,130,3.0,9.0,75,0.00,,,0.00,,2013-03-12 05:02:00,
2013-03-12 01:12:00,72.0,64.0,29.99,SE,130,3.0,9.0,75,0.00,,,0.00,,2013-03-12 05:12:00,
2013-03-12 01:22:00,72.0,64.0,29.98,SE,138,2.0,8.0,76,0.00,,,0.00,,2013-03-12 05:22:00,
2013-03-12 01:32:00,72.0,64.0,29.98,SSE,150,2.0,8.0,76,0.00,,,0.00,,2013-03-12 05:32:00,
2013-03-12 01:42:00,72.0,64.0,29.98,SSE,150,2.0,8.0,76,0.00,,,0.00,,2013-03-12 05:42:00,
2013-03-12 01:52:00,72.0,64.0,29.98,SSE,150,2.0,8.0,76,0.00,,,0.00,,2013-03-12 05:52:00,
2013-03-12 02:02:00,72.0,64.0,29.98,SSE,150,2.0,8.0,76,0.00,,,0.00,,2013-03-12 06:02:00,
2013-03-12 02:12:00,72.0,64.0,29.98,SSE,150,2.0,8.0,76,0.00,,,0.00,,2013-03-12 06:12:00,
2013-03-12 17:03:00,77.0,68.0,29.93,WSW,237,1.0,10.0,73,0.00,,,0.00,,2013-03-12 21:03:00,
2013-03-12 17:13:00,77.0,68.0,29.93,WSW,237,1.0,10.0,73,0.00,,,0.00,,2013-03-12 21:13:00,
2013-03-12 17:23:00,77.0,67.0,29.93,SSW,199,3.0,9.0,71,0.00,,,0.00,,2013-03-12 21:23:00,
2013-03-12 17:33:00,77.0,69.0,29.92,South,169,3.0,5.0,76,0.00,,,0.00,,2013-03-12 21:33:00,
2013-03-12 17:43:00,77.0,69.0,29.92,South,169,3.0,5.0,76,0.00,,,0.00,,2013-03-12 21:43:00,
2013-03-12 17:53:00,76.0,69.0,29.91,SSE,164,3.0,10.0,79,0.00,,,0.00,,2013-03-12 21:53:00,
2013-03-12 18:02:00,77.0,69.0,29.92,SSE,167,0.0,9.0,77,0.00,,,0.00,,2013-03-12 22:02:00,
2013-03-12 18:13:00,77.0,69.0,29.92,SSE,167,0.0,9.0,77,0.00,,,0.00,,2013-03-12 22:13:00,
2013-03-12 18:23:00,77.0,70.0,29.92,SSW,198,3.0,5.0,79,0.00,,,0.00,,2013-03-12 22:23:00,
2013-03-12 18:33:00,77.0,68.0,29.92,SW,227,4.0,11.0,74,0.00,,,0.00,,2013-03-12 22:33:00,
2013-03-12 18:43:00,77.0,68.0,29.92,SW,227,4.0,11.0,74,0.00,,,0.00,,2013-03-12 22:43:00,
2013-03-12 18:54:00,78.0,68.0,29.93,SSW,196,6.0,12.0,72,0.00,,,0.00,,2013-03-12 22:54:00,
2013-03-12 19:02:00,78.0,68.0,29.93,SSW,201,4.0,10.0,72,0.00,,,0.00,,2013-03-12 23:02:00,
2013-03-12 19:12:00,78.0,68.0,29.93,SSW,201,4.0,10.0,72,0.00,,,0.00,,2013-03-12 23:12:00,
2013-03-12 19:23:00,77.0,67.0,29.93,West,265,6.0,12.0,71,0.00,,,0.00,,2013-03-12 23:23:00,
2013-03-12 19:34:00,77.0,67.0,29.93,SSW,196,4.0,11.0,72,0.00,,,0.00,,2013-03-12 23:34:00,
2013-03-12 19:43:00,77.0,67.0,29.93,SSW,196,4.0,11.0,72,0.00,,,0.00,,2013-03-12 23:43:00,
2013-03-12 19:52:00,77.0,68.0,29.93,SW,219,3.0,10.0,73,0.00,,,0.00,,2013-03-12 23:52:00,
2013-03-12 20:03:00,76.0,67.0,29.93,WSW,246,0.0,9.0,74,0.00,,,0.00,,2013-03-13 00:03:00,
2013-03-12 20:13:00,76.0,67.0,29.93,WSW,246,0.0,9.0,74,0.00,,,0.00,,2013-03-13 00:13:00,
2013-03-12 20:23:00,76.0,67.0,29.94,WSW,246,3.0,7.0,75,0.00,,,0.00,,2013-03-13 00:23:00,
2013-03-12 20:33:00,75.0,67.0,29.95,WSW,252,1.0,7.0,76,0.00,,,0.00,,2013-03-13 00:33:00,
2013-03-12 20:42:00,75.0,67.0,29.95,WSW,252,1.0,7.0,76,0.00,,,0.00,,2013-03-13 00:42:00,
2013-03-12 20:53:00,75.0,67.0,29.96,WSW,252,1.0,6.0,77,0.00,,,0.00,,2013-03-13 00:53:00,
2013-03-12 21:03:00,75.0,68.0,29.97,WSW,252,3.0,7.0,78,0.00,,,0.00,,2013-03-13 01:03:00,
2013-03-12 21:13:00,75.0,68.0,29.97,WSW,252,3.0,7.0,78,0.00,,,0.00,,2013-03-13 01:13:00,
2013-03-12 21:22:00,74.0,67.0,29.97,SW,219,2.0,11.0,78,0.00,,,0.00,,2013-03-13 01:22:00,
2013-03-12 21:32:00,74.0,67.0,29.97,WSW,250,3.0,9.0,78,0.00,,,0.00,,2013-03-13 01:32:00,
2013-03-12 21:42:00,74.0,67.0,29.97,WSW,250,3.0,9.0,78,0.00,,,0.00,,2013-03-13 01:42:00,
2013-03-12 21:53:00,74.0,67.0,29.97,SW,236,2.0,7.0,78,0.00,,,0.00,,2013-03-13 01:53:00,
2013-03-12 22:02:00,73.0,66.0,29.98,WSW,239,2.0,6.0,79,0.00,,,0.00,,2013-03-13 02:02:00,
2013-03-12 22:12:00,73.0,66.0,29.98,WSW,239,2.0,6.0,79,0.00,,,0.00,,2013-03-13 02:12:00,
2013-03-12 22:22:00,73.0,66.0,29.98,WSW,242,3.0,7.0,80,0.00,,,0.00,,2013-03-13 02:22:00,
2013-03-12 22:30:00,72.0,66.0,29.99,WSW,242,2.0,5.0,81,0.00,,,0.00,,2013-03-13 02:30:00,
2013-03-12 22:32:00,73.0,66.0,29.99,WSW,242,2.0,5.0,80,0.00,,,0.00,,2013-03-13 02:32:00,
2013-03-12 22:43:00,73.0,66.0,29.99,WSW,242,2.0,5.0,80,0.00,,,0.00,,2013-03-13 02:43:00,
2013-03-12 22:53:00,72.0,66.0,29.99,WSW,242,2.0,5.0,81,0.00,,,0.00,,2013-03-13 02:53:00,
2013-03-12 23:02:00,72.0,66.0,29.99,WSW,242,2.0,5.0,81,0.00,,,0.00,,2013-03-13 03:02:00,
2013-03-12 23:13:00,72.0,66.0,29.99,WSW,242,2.0,5.0,81,0.00,,,0.00,,2013-03-13 03:13:00,
2013-03-12 23:22:00,72.0,66.0,29.99,WSW,242,2.0,5.0,81,0.00,,,0.00,,2013-03-13 03:22:00,